Time;durP1;ratioP1;P1;durP2;ratioP2;P2;SDS_P1;SDS_P2;PMS_P1;PMS_P2;Temp;Humidity;BMP_temperature;BMP_pressure;BME280_temperature;BME280_humidity;BME280_pressure;Samples;Min_cycle;Max_cycle;Signal;HPM_P1;HPM_P2
2022/11/20 00:00:20;;;;;;;2.60;2.40;;;20.40;85.80;;;;;;4995798;28;20204;-75
2022/11/20 00:02:46;;;;;;;2.50;2.30;;;20.40;86.00;;;;;;4991643;28;20205;-74
2022/11/20 00:05:13;;;;;;;3.28;2.65;;;20.40;85.90;;;;;;5001006;28;20224;-75
2022/11/20 00:07:40;;;;;;;2.92;2.60;;;20.40;85.90;;;;;;5002022;28;20196;-75
2022/11/20 00:10:08;;;;;;;2.17;2.00;;;20.40;85.80;;;;;;4993700;28;20659;-75
2022/11/20 00:12:35;;;;;;;2.28;2.08;;;20.40;85.90;;;;;;4995656;28;20193;-75
2022/11/20 00:15:03;;;;;;;3.03;2.70;;;20.40;85.90;;;;;;4994396;28;20208;-74
2022/11/20 00:17:30;;;;;;;2.70;2.50;;;20.40;86.00;;;;;;4992914;28;20220;-75
2022/11/20 00:19:56;;;;;;;2.97;2.78;;;20.40;86.00;;;;;;5000304;28;20200;-75
2022/11/20 00:22:23;;;;;;;2.78;2.58;;;20.40;86.00;;;;;;5004967;28;20663;-75
2022/11/20 00:24:50;;;;;;;2.60;2.40;;;20.40;86.10;;;;;;4999582;28;20219;-75
2022/11/20 00:27:17;;;;;;;2.63;2.42;;;20.40;86.30;;;;;;4998653;28;20645;-75
2022/11/20 00:29:43;;;;;;;2.58;2.28;;;20.40;86.30;;;;;;4990469;28;20744;-75
2022/11/20 00:32:11;;;;;;;3.15;2.22;;;20.40;86.30;;;;;;5002205;28;20207;-76
2022/11/20 00:34:38;;;;;;;3.40;3.15;;;20.40;86.30;;;;;;4979397;28;20731;-75
2022/11/20 00:37:05;;;;;;;3.25;2.70;;;20.40;86.30;;;;;;4993736;28;20208;-75
2022/11/20 00:39:32;;;;;;;3.00;2.70;;;20.40;86.20;;;;;;5000651;28;20473;-75
2022/11/20 00:41:58;;;;;;;2.70;2.50;;;20.40;86.20;;;;;;4993709;28;20212;-75
2022/11/20 00:44:25;;;;;;;2.80;2.60;;;20.40;86.20;;;;;;4987732;28;20573;-74
2022/11/20 00:46:52;;;;;;;2.45;2.25;;;20.40;86.10;;;;;;4997479;28;20484;-75
2022/11/20 00:49:20;;;;;;;4.18;2.25;;;20.40;86.20;;;;;;4994703;28;20200;-74
2022/11/20 00:51:46;;;;;;;3.65;2.70;;;20.40;86.20;;;;;;4988294;28;20212;-75
2022/11/20 00:54:13;;;;;;;2.65;2.45;;;20.40;86.30;;;;;;5007723;28;20200;-76
2022/11/20 00:56:40;;;;;;;2.90;2.38;;;20.30;86.20;;;;;;4996015;28;20197;-75
2022/11/20 00:59:07;;;;;;;2.90;2.70;;;20.30;86.10;;;;;;4991039;28;20212;-74
2022/11/20 01:01:33;;;;;;;3.08;2.88;;;20.30;86.20;;;;;;5000282;28;20227;-74
2022/11/20 01:04:01;;;;;;;6.30;2.55;;;20.30;86.20;;;;;;4989263;28;20201;-74
2022/11/20 01:06:30;;;;;;;2.78;2.58;;;20.30;86.10;;;;;;4988312;28;20217;-74
2022/11/20 01:08:59;;;;;;;2.67;2.47;;;20.30;86.10;;;;;;4996754;28;20211;-75
2022/11/20 01:11:28;;;;;;;3.88;2.70;;;20.30;86.00;;;;;;4994519;28;20201;-74
2022/11/20 01:13:57;;;;;;;3.08;2.80;;;20.30;86.00;;;;;;4985058;28;20193;-75
2022/11/20 01:16:26;;;;;;;3.42;2.80;;;20.30;86.00;;;;;;4995173;28;20232;-75
2022/11/20 01:18:55;;;;;;;3.05;2.47;;;20.30;86.00;;;;;;4982388;28;20208;-75
2022/11/20 01:21:24;;;;;;;2.70;2.50;;;20.30;86.00;;;;;;4999226;28;20251;-74
2022/11/20 01:23:53;;;;;;;2.50;2.30;;;20.30;86.00;;;;;;5012086;28;20200;-75
2022/11/20 01:26:22;;;;;;;2.47;2.28;;;20.30;86.00;;;;;;5011424;28;20232;-74
2022/11/20 01:28:50;;;;;;;2.75;2.22;;;20.30;86.00;;;;;;4999434;28;20201;-74
2022/11/20 01:31:19;;;;;;;2.60;2.40;;;20.30;86.00;;;;;;4989194;28;20295;-74
2022/11/20 01:33:47;;;;;;;3.10;2.85;;;20.30;86.10;;;;;;5002187;28;20216;-75
2022/11/20 01:36:15;;;;;;;2.33;2.10;;;20.30;86.00;;;;;;4999206;28;20196;-75
2022/11/20 01:38:42;;;;;;;2.50;2.13;;;20.30;86.00;;;;;;5000906;28;20223;-74
2022/11/20 01:43:20;;;;;;;2.88;2.45;;;20.30;86.00;;;;;;5006570;28;20291;-75
2022/11/20 01:43:58;;;;;;;2.65;2.33;;;20.30;86.10;;;;;;4997759;28;20200;-74
2022/11/20 01:46:25;;;;;;;3.33;3.03;;;20.20;85.90;;;;;;4982701;28;20267;-74
2022/11/20 01:48:57;;;;;;;2.20;2.00;;;20.30;86.00;;;;;;5005254;28;20667;-74
2022/11/20 01:51:29;;;;;;;2.35;2.15;;;20.30;86.00;;;;;;4991856;28;20209;-74
2022/11/20 01:54:01;;;;;;;2.78;2.58;;;20.20;85.90;;;;;;4997764;28;20545;-75
2022/11/20 01:56:32;;;;;;;2.70;2.50;;;20.20;85.90;;;;;;5001044;28;20196;-74
2022/11/20 01:59:01;;;;;;;3.13;2.45;;;20.20;85.90;;;;;;4991418;28;20204;-74
2022/11/20 02:01:28;;;;;;;2.60;2.40;;;20.20;85.90;;;;;;4984977;28;20205;-74
2022/11/20 02:03:55;;;;;;;2.40;2.20;;;20.20;85.90;;;;;;4991564;28;20204;-74
2022/11/20 02:06:25;;;;;;;2.38;2.17;;;20.20;85.90;;;;;;4993301;28;20489;-73
2022/11/20 02:08:53;;;;;;;2.63;2.42;;;20.30;86.00;;;;;;4996387;28;20196;-72
2022/11/20 02:11:20;;;;;;;2.70;2.50;;;20.30;86.00;;;;;;5002314;28;20189;-73
2022/11/20 02:13:47;;;;;;;2.95;2.45;;;20.30;85.90;;;;;;4991604;28;20201;-73
2022/11/20 02:16:18;;;;;;;3.10;2.90;;;20.30;85.90;;;;;;4990745;28;20276;-73
2022/11/20 02:18:46;;;;;;;2.20;1.90;;;20.30;85.90;;;;;;4994426;28;20672;-72
2022/11/20 02:21:34;;;;;;;2.58;2.38;;;20.20;85.80;;;;;;4998380;28;20193;-72
2022/11/20 02:24:09;;;;;;;2.47;2.13;;;20.30;85.90;;;;;;4997434;28;20185;-71
2022/11/20 02:26:42;;;;;;;2.35;2.15;;;20.30;85.80;;;;;;5011998;28;20290;-72
2022/11/20 02:29:08;;;;;;;2.53;2.33;;;20.30;85.80;;;;;;4983030;28;20193;-72
2022/11/20 02:31:38;;;;;;;2.50;2.30;;;20.30;85.80;;;;;;4989486;28;20201;-72
2022/11/20 02:34:05;;;;;;;3.08;2.80;;;20.30;85.80;;;;;;5005787;28;20200;-71
2022/11/20 02:36:35;;;;;;;2.53;2.33;;;20.30;85.80;;;;;;4998575;28;20201;-72
2022/11/20 02:39:02;;;;;;;2.75;2.47;;;20.30;85.80;;;;;;4987121;28;20201;-71
2022/11/20 02:41:35;;;;;;;2.90;2.58;;;20.30;85.80;;;;;;4995637;28;20205;-72
2022/11/20 02:44:02;;;;;;;2.42;2.22;;;20.30;85.80;;;;;;4995205;28;20197;-71
2022/11/20 02:46:29;;;;;;;2.60;2.40;;;20.30;85.80;;;;;;4996691;28;20216;-72
2022/11/20 02:48:56;;;;;;;2.70;2.10;;;20.20;85.70;;;;;;4989730;28;20203;-71
2022/11/20 02:51:23;;;;;;;2.80;2.60;;;20.30;85.70;;;;;;4987310;28;20201;-72
2022/11/20 02:53:50;;;;;;;2.30;2.10;;;20.30;85.70;;;;;;4995281;28;20205;-72
2022/11/20 02:56:17;;;;;;;2.60;2.40;;;20.30;85.70;;;;;;4987115;28;20196;-72
2022/11/20 02:58:45;;;;;;;3.08;2.78;;;20.20;85.70;;;;;;4996282;28;20219;-72
2022/11/20 03:01:12;;;;;;;2.08;1.83;;;20.20;85.60;;;;;;4993448;28;20204;-73
2022/11/20 03:03:39;;;;;;;3.33;3.03;;;20.20;85.60;;;;;;5001493;28;20216;-72
2022/11/20 03:06:06;;;;;;;2.78;2.55;;;20.30;85.70;;;;;;5002497;28;20220;-72
2022/11/20 03:08:33;;;;;;;2.70;2.40;;;20.30;85.60;;;;;;5013894;28;20223;-72
2022/11/20 03:11:04;;;;;;;2.60;2.20;;;20.30;85.70;;;;;;4996220;28;20203;-72
2022/11/20 03:13:30;;;;;;;2.30;2.10;;;20.30;85.60;;;;;;4994959;28;20205;-71
2022/11/20 03:15:59;;;;;;;2.10;1.90;;;20.30;85.60;;;;;;4994946;28;20802;-72
2022/11/20 03:18:29;;;;;;;3.33;3.03;;;20.30;85.60;;;;;;5000715;28;20192;-71
2022/11/20 03:20:59;;;;;;;2.30;2.10;;;20.30;85.60;;;;;;4995843;28;20254;-72
2022/11/20 03:23:26;;;;;;;2.53;2.33;;;20.30;85.60;;;;;;5013355;28;20223;-72
2022/11/20 03:25:53;;;;;;;2.42;2.13;;;20.30;85.50;;;;;;5008666;28;20220;-72
2022/11/20 03:28:20;;;;;;;2.35;2.15;;;20.30;85.60;;;;;;4991145;28;20215;-72
2022/11/20 03:30:46;;;;;;;2.72;2.53;;;20.30;85.40;;;;;;4991790;28;20215;-72
2022/11/20 03:33:15;;;;;;;2.40;2.20;;;20.30;85.50;;;;;;4997958;28;20290;-72
2022/11/20 03:35:41;;;;;;;2.25;2.05;;;20.30;85.40;;;;;;5003870;28;20198;-73
2022/11/20 03:38:08;;;;;;;2.80;2.60;;;20.30;85.50;;;;;;5002336;28;20528;-72
2022/11/20 03:40:35;;;;;;;2.38;2.05;;;20.30;85.40;;;;;;5008420;28;20564;-72
2022/11/20 03:43:02;;;;;;;2.45;2.10;;;20.30;85.40;;;;;;4991748;28;20224;-73
2022/11/20 03:45:29;;;;;;;3.28;2.40;;;20.30;85.40;;;;;;4994267;28;20213;-73
2022/11/20 03:47:55;;;;;;;2.50;2.20;;;20.30;85.40;;;;;;5005139;28;20702;-73
2022/11/20 03:50:23;;;;;;;2.20;2.00;;;20.30;85.30;;;;;;5004211;28;20211;-73
2022/11/20 03:52:50;;;;;;;2.97;2.70;;;20.30;85.30;;;;;;5007093;28;20196;-73
2022/11/20 03:55:17;;;;;;;2.47;2.28;;;20.30;85.30;;;;;;5017280;28;20585;-73
2022/11/20 03:57:43;;;;;;;2.58;2.38;;;20.30;85.30;;;;;;4996355;28;20211;-72
2022/11/20 04:00:12;;;;;;;2.75;2.55;;;20.30;85.20;;;;;;4995847;28;20678;-72
2022/11/20 04:02:38;;;;;;;2.60;2.28;;;20.30;85.20;;;;;;5001411;28;20205;-72
2022/11/20 04:05:06;;;;;;;2.42;2.22;;;20.30;85.20;;;;;;4998844;28;20572;-72
2022/11/20 04:07:35;;;;;;;2.17;1.98;;;20.30;85.20;;;;;;5000293;28;20196;-72
2022/11/20 04:10:02;;;;;;;2.33;2.13;;;20.30;85.10;;;;;;5003947;28;20197;-71
2022/11/20 04:12:32;;;;;;;2.50;2.30;;;20.30;85.10;;;;;;4993651;28;20197;-72
2022/11/20 04:14:58;;;;;;;2.42;2.13;;;20.30;85.10;;;;;;4993679;28;20212;-72
2022/11/20 04:17:26;;;;;;;2.35;2.15;;;20.30;85.10;;;;;;4992042;28;20199;-70
2022/11/20 04:19:52;;;;;;;2.67;2.47;;;20.30;85.00;;;;;;4986499;28;20659;-72
2022/11/20 04:22:19;;;;;;;2.58;2.20;;;20.30;85.00;;;;;;4999235;28;20200;-72
2022/11/20 04:24:47;;;;;;;2.40;2.20;;;20.30;85.00;;;;;;5003955;28;20660;-72
2022/11/20 04:27:14;;;;;;;2.20;2.00;;;20.30;85.10;;;;;;4999388;28;20225;-71
2022/11/20 04:29:41;;;;;;;2.72;2.40;;;20.20;85.00;;;;;;4985683;28;20205;-72
2022/11/20 04:32:07;;;;;;;2.38;2.17;;;20.20;85.00;;;;;;4998418;28;20197;-71
2022/11/20 04:34:34;;;;;;;1.95;1.75;;;20.20;85.10;;;;;;4998448;28;20420;-71
2022/11/20 04:37:01;;;;;;;2.35;2.17;;;20.20;85.20;;;;;;4998386;28;20207;-71
2022/11/20 04:39:28;;;;;;;3.30;3.00;;;20.20;85.10;;;;;;4994524;28;20750;-72
2022/11/20 04:44:37;;;;;;;2.30;2.10;;;20.20;85.30;;;;;;4991278;28;20196;-72
2022/11/20 04:47:03;;;;;;;2.55;2.35;;;20.10;85.60;;;;;;4978757;28;20220;-73
2022/11/20 04:49:31;;;;;;;3.83;2.53;;;20.10;85.90;;;;;;4988225;28;20197;-71
2022/11/20 04:51:58;;;;;;;2.50;2.30;;;20.20;86.00;;;;;;4999357;28;20197;-72
2022/11/20 04:54:24;;;;;;;2.72;2.13;;;20.20;85.60;;;;;;5009554;28;20192;-71
2022/11/20 04:56:51;;;;;;;2.25;2.05;;;20.30;85.40;;;;;;4990677;28;20201;-72
2022/11/20 04:59:19;;;;;;;2.42;2.22;;;20.40;85.30;;;;;;4987927;28;20201;-71
2022/11/20 05:01:46;;;;;;;2.70;2.50;;;20.40;85.00;;;;;;5001707;28;20204;-72
2022/11/20 05:04:13;;;;;;;2.20;2.00;;;20.50;84.90;;;;;;5003534;28;20196;-72
2022/11/20 05:06:40;;;;;;;2.60;2.40;;;20.50;84.70;;;;;;4994320;28;20228;-71
2022/11/20 05:09:07;;;;;;;2.25;2.05;;;20.60;84.70;;;;;;5012767;28;20196;-71
2022/11/20 05:11:33;;;;;;;2.83;2.20;;;20.60;84.40;;;;;;5000203;28;20231;-72
2022/11/20 05:14:00;;;;;;;2.30;2.10;;;20.60;84.30;;;;;;4990857;28;20207;-71
2022/11/20 05:16:28;;;;;;;2.20;2.00;;;20.60;84.20;;;;;;4995233;28;20295;-72
2022/11/20 05:18:56;;;;;;;2.95;2.65;;;20.60;84.20;;;;;;4988110;28;20401;-72
2022/11/20 05:21:23;;;;;;;2.30;2.17;;;20.60;84.10;;;;;;4999483;28;20198;-72
2022/11/20 05:23:50;;;;;;;2.55;2.35;;;20.60;84.10;;;;;;5012450;28;20192;-71
2022/11/20 05:26:18;;;;;;;2.40;2.20;;;20.60;84.10;;;;;;4991362;28;20611;-71
2022/11/20 05:28:46;;;;;;;2.28;2.13;;;20.50;84.00;;;;;;4993767;28;20220;-72
2022/11/20 05:31:15;;;;;;;3.30;2.67;;;20.50;84.00;;;;;;4999316;28;20675;-71
2022/11/20 05:33:44;;;;;;;2.35;1.80;;;20.50;84.00;;;;;;5002513;28;20205;-72
2022/11/20 05:36:12;;;;;;;2.63;2.42;;;20.50;84.80;;;;;;4995641;28;20208;-71
2022/11/20 05:38:39;;;;;;;2.28;2.08;;;20.50;84.00;;;;;;5006373;28;20202;-71
2022/11/20 05:41:06;;;;;;;2.60;1.80;;;20.50;84.10;;;;;;4991884;28;20205;-71
2022/11/20 05:43:34;;;;;;;2.38;2.17;;;20.50;84.10;;;;;;4985210;28;20205;-71
2022/11/20 05:46:01;;;;;;;2.75;2.55;;;20.40;84.00;;;;;;5001728;28;20244;-72
2022/11/20 05:48:28;;;;;;;3.25;2.95;;;20.40;84.00;;;;;;4996928;28;20204;-72
2022/11/20 05:50:58;;;;;;;1.85;1.75;;;20.40;84.00;;;;;;4999424;28;20351;-73
2022/11/20 05:53:25;;;;;;;1.70;1.60;;;20.40;84.00;;;;;;5006946;28;20251;-73
2022/11/20 05:55:59;;;;;;;1.90;1.80;;;20.40;84.00;;;;;;4982737;28;20595;-72
2022/11/20 05:58:26;;;;;;;1.85;1.75;;;20.40;84.10;;;;;;4991076;28;20208;-73
2022/11/20 06:00:53;;;;;;;1.90;1.80;;;20.40;84.10;;;;;;4982598;28;20208;-72
2022/11/20 06:03:20;;;;;;;2.55;2.35;;;20.40;84.10;;;;;;5000246;28;20207;-72
2022/11/20 06:05:47;;;;;;;2.72;2.53;;;20.40;84.10;;;;;;4993489;28;20205;-72
2022/11/20 06:08:15;;;;;;;2.38;2.17;;;20.40;84.10;;;;;;4991664;28;20197;-72
2022/11/20 06:10:41;;;;;;;2.47;2.20;;;20.40;84.10;;;;;;4992405;28;20201;-72
2022/11/20 06:13:08;;;;;;;2.33;2.08;;;20.40;84.10;;;;;;4986660;28;20205;-73
2022/11/20 06:15:35;;;;;;;2.60;2.40;;;20.40;84.10;;;;;;4995470;28;20233;-73
2022/11/20 06:18:01;;;;;;;1.85;1.75;;;20.40;84.20;;;;;;5004476;28;20196;-72
2022/11/20 06:20:28;;;;;;;2.15;1.95;;;20.40;84.10;;;;;;4987665;28;21643;-73
2022/11/20 06:22:55;;;;;;;2.42;2.20;;;20.40;84.10;;;;;;4991679;28;20567;-70
2022/11/20 06:25:23;;;;;;;2.33;2.10;;;20.40;84.00;;;;;;4989716;28;20209;-71
2022/11/20 06:27:50;;;;;;;2.20;1.75;;;20.40;84.00;;;;;;4995750;28;20220;-72
2022/11/20 06:30:17;;;;;;;1.83;1.73;;;20.50;84.00;;;;;;5003261;28;20200;-72
2022/11/20 06:32:43;;;;;;;2.70;2.50;;;20.50;84.00;;;;;;4997664;28;20224;-73
2022/11/20 06:35:11;;;;;;;1.90;1.80;;;20.50;83.90;;;;;;4998599;28;20200;-72
2022/11/20 06:37:37;;;;;;;2.60;2.40;;;20.50;83.90;;;;;;4990478;28;20196;-72
2022/11/20 06:40:05;;;;;;;2.58;1.65;;;20.50;83.80;;;;;;4987933;28;20193;-72
2022/11/20 06:42:33;;;;;;;1.60;1.50;;;20.50;83.80;;;;;;4999799;28;20212;-71
2022/11/20 06:45:00;;;;;;;2.20;2.00;;;20.50;83.60;;;;;;4993035;28;20493;-71
2022/11/20 06:47:27;;;;;;;2.65;2.28;;;20.50;83.60;;;;;;4988305;28;20220;-72
2022/11/20 06:49:54;;;;;;;1.77;1.67;;;20.50;83.60;;;;;;4987246;28;20292;-71
2022/11/20 06:52:20;;;;;;;2.20;1.98;;;20.50;83.50;;;;;;4991935;28;20208;-72
2022/11/20 06:54:47;;;;;;;2.33;2.10;;;20.60;83.50;;;;;;4991430;28;20569;-73
2022/11/20 06:57:14;;;;;;;2.42;1.92;;;20.60;83.40;;;;;;4983877;28;20200;-71
2022/11/20 06:59:42;;;;;;;2.58;2.38;;;20.60;83.40;;;;;;5000394;28;20575;-71
2022/11/20 07:02:10;;;;;;;2.10;1.90;;;20.50;83.20;;;;;;4993648;28;20211;-71
2022/11/20 07:04:37;;;;;;;3.08;2.17;;;20.50;83.20;;;;;;4992710;28;20208;-71
2022/11/20 07:07:04;;;;;;;2.17;1.98;;;20.50;83.20;;;;;;4993481;28;20584;-72
2022/11/20 07:09:31;;;;;;;2.45;2.22;;;20.50;83.20;;;;;;4991803;28;20613;-72
2022/11/20 07:11:57;;;;;;;2.03;1.92;;;20.50;83.20;;;;;;4998658;28;20653;-71
2022/11/20 07:14:24;;;;;;;2.00;1.90;;;20.50;83.20;;;;;;4995239;28;20204;-72
2022/11/20 07:16:52;;;;;;;2.42;2.22;;;20.50;83.20;;;;;;4991911;28;20212;-72
2022/11/20 07:19:19;;;;;;;2.00;1.90;;;20.50;83.20;;;;;;4995114;28;20679;-72
2022/11/20 07:21:45;;;;;;;2.33;2.00;;;20.50;83.20;;;;;;4984581;28;20456;-73
2022/11/20 07:24:12;;;;;;;2.65;2.45;;;20.50;83.20;;;;;;4991527;28;20204;-71
2022/11/20 07:26:39;;;;;;;2.28;2.13;;;20.50;83.10;;;;;;4996901;28;20228;-73
2022/11/20 07:29:06;;;;;;;1.95;1.85;;;20.50;83.10;;;;;;4984124;28;20643;-72
2022/11/20 07:31:32;;;;;;;2.00;1.90;;;20.50;83.10;;;;;;4987253;28;20205;-72
2022/11/20 07:34:01;;;;;;;1.85;1.75;;;20.50;83.10;;;;;;5005651;28;20199;-72
2022/11/20 07:36:27;;;;;;;2.25;2.05;;;20.50;83.10;;;;;;4986854;28;20201;-73
2022/11/20 07:38:54;;;;;;;2.17;2.08;;;20.50;83.10;;;;;;4989362;28;20197;-72
2022/11/20 07:41:21;;;;;;;2.15;1.95;;;20.50;83.00;;;;;;4997661;28;20197;-72
2022/11/20 07:43:47;;;;;;;2.00;1.80;;;20.50;83.00;;;;;;4998678;28;20227;-72
2022/11/20 07:46:14;;;;;;;2.20;2.05;;;20.50;83.00;;;;;;5000136;28;20219;-73
2022/11/20 07:48:42;;;;;;;2.13;1.92;;;20.50;83.00;;;;;;4996871;28;20197;-71
2022/11/20 07:51:10;;;;;;;2.80;2.60;;;20.50;83.00;;;;;;4991962;28;20564;-71
2022/11/20 07:53:36;;;;;;;2.03;1.88;;;20.50;83.20;;;;;;4994714;28;20193;-71
2022/11/20 07:56:04;;;;;;;1.90;1.80;;;20.60;83.10;;;;;;4993023;28;20542;-71
2022/11/20 07:58:32;;;;;;;3.00;2.70;;;20.60;84.00;;;;;;4990782;28;20207;-71
2022/11/20 08:01:02;;;;;;;1.80;1.70;;;20.50;83.00;;;;;;4989602;28;20201;-71
2022/11/20 08:03:29;;;;;;;2.13;1.92;;;20.50;83.00;;;;;;4995189;28;20212;-72
2022/11/20 08:05:59;;;;;;;2.13;1.90;;;20.50;82.90;;;;;;5000394;28;20671;-71
2022/11/20 08:08:27;;;;;;;2.00;1.90;;;20.50;82.90;;;;;;5005921;28;20270;-71
2022/11/20 08:14:11;;;;;;;2.30;2.10;;;20.50;82.80;;;;;;5014247;28;20209;-71
2022/11/20 08:16:26;;;;;;;2.45;2.25;;;20.60;82.80;;;;;;4997488;28;20247;-72
2022/11/20 08:18:54;;;;;;;2.00;1.90;;;20.60;82.80;;;;;;4983774;28;20220;-71
2022/11/20 08:21:21;;;;;;;2.22;2.00;;;20.60;82.80;;;;;;4995570;28;20205;-71
2022/11/20 08:23:52;;;;;;;3.25;2.83;;;20.60;82.60;;;;;;4996837;28;20200;-71
2022/11/20 08:26:19;;;;;;;2.25;2.05;;;20.60;82.50;;;;;;5004573;28;20224;-72
2022/11/20 08:28:46;;;;;;;2.60;2.40;;;20.60;82.30;;;;;;4995239;28;20221;-73
2022/11/20 08:31:13;;;;;;;2.70;2.50;;;20.70;83.00;;;;;;5002871;28;20292;-73
2022/11/20 08:33:40;;;;;;;3.35;2.72;;;20.70;82.10;;;;;;4989212;28;20212;-73
2022/11/20 08:36:07;;;;;;;2.70;2.50;;;20.80;81.80;;;;;;4989721;28;20213;-71
2022/11/20 08:38:34;;;;;;;2.85;2.65;;;20.80;81.70;;;;;;4994459;28;20201;-71
2022/11/20 08:43:48;;;;;;;2.85;2.65;;;20.80;81.30;;;;;;5004892;28;20566;-71
2022/11/20 08:46:15;;;;;;;2.23;2.00;;;20.90;81.30;;;;;;4996271;28;20208;-73
2022/11/20 08:48:42;;;;;;;2.58;2.28;;;20.90;81.20;;;;;;4995910;28;20492;-72
2022/11/20 08:51:09;;;;;;;2.30;2.10;;;20.90;81.10;;;;;;4990775;28;20201;-72
2022/11/20 08:53:36;;;;;;;3.00;2.80;;;20.90;81.00;;;;;;4994641;28;20230;-73
2022/11/20 08:56:05;;;;;;;4.43;2.20;;;20.90;81.00;;;;;;4993068;28;20208;-72
2022/11/20 08:58:32;;;;;;;2.73;2.53;;;20.90;80.80;;;;;;4988530;28;20835;-73
2022/11/20 09:00:59;;;;;;;3.10;2.90;;;20.90;80.80;;;;;;4989266;28;20461;-72
2022/11/20 09:03:27;;;;;;;3.13;2.80;;;20.90;80.70;;;;;;4992785;28;20467;-72
2022/11/20 09:05:59;;;;;;;2.50;2.30;;;20.90;80.70;;;;;;4988765;28;20460;-73
2022/11/20 09:08:26;;;;;;;2.60;2.40;;;20.90;80.60;;;;;;5001438;28;20483;-72
2022/11/20 09:10:53;;;;;;;2.93;2.73;;;20.90;80.50;;;;;;4981737;28;20828;-70
2022/11/20 09:13:21;;;;;;;2.30;2.20;;;21.00;80.50;;;;;;4986626;28;20467;-71
2022/11/20 09:15:48;;;;;;;2.60;2.40;;;20.90;80.30;;;;;;5003697;28;20499;-72
2022/11/20 09:18:15;;;;;;;2.13;1.97;;;21.00;80.30;;;;;;4994004;28;20471;-72
2022/11/20 09:20:41;;;;;;;2.70;2.50;;;21.00;80.10;;;;;;4990033;28;20457;-72
2022/11/20 09:23:08;;;;;;;2.63;2.43;;;20.90;80.00;;;;;;4990932;28;20459;-71
2022/11/20 09:25:35;;;;;;;2.50;2.30;;;20.90;80.00;;;;;;4995051;28;20463;-71
2022/11/20 09:28:01;;;;;;;3.33;3.03;;;20.90;80.00;;;;;;4988798;28;20479;-72
2022/11/20 09:30:30;;;;;;;2.57;2.37;;;20.90;80.10;;;;;;4987252;28;20464;-73
2022/11/20 09:32:57;;;;;;;2.13;2.03;;;20.90;80.30;;;;;;4987381;28;20495;-71
2022/11/20 09:35:24;;;;;;;2.63;2.42;;;20.90;80.50;;;;;;4988573;28;21010;-72
2022/11/20 09:37:51;;;;;;;3.87;2.97;;;20.90;80.50;;;;;;4999578;28;20197;-71
2022/11/20 09:40:21;;;;;;;2.97;2.70;;;21.00;80.90;;;;;;4992767;28;20440;-73
2022/11/20 09:42:55;;;;;;;3.40;3.10;;;21.00;80.50;;;;;;4994872;28;21051;-74
2022/11/20 09:45:29;;;;;;;2.93;2.73;;;21.10;80.60;;;;;;4992382;28;20436;-73
2022/11/20 09:48:17;;;;;;;2.70;2.50;;;21.20;80.30;;;;;;4990313;28;20488;-71
2022/11/20 09:50:49;;;;;;;2.47;2.27;;;21.30;80.00;;;;;;4989317;28;20916;-71
2022/11/20 09:53:25;;;;;;;6.17;2.97;;;21.30;79.80;;;;;;4993987;28;20447;-71
2022/11/20 09:55:52;;;;;;;4.53;2.63;;;21.30;79.60;;;;;;4990004;28;20463;-71
2022/11/20 09:58:29;;;;;;;2.80;2.60;;;21.40;79.60;;;;;;4999197;28;20457;-71
2022/11/20 10:00:59;;;;;;;2.53;2.33;;;21.40;79.50;;;;;;4986802;28;20966;-71
2022/11/20 10:03:38;;;;;;;2.50;2.30;;;21.30;79.30;;;;;;4990456;28;20855;-71
2022/11/20 10:06:10;;;;;;;2.80;2.60;;;21.30;79.30;;;;;;4992149;28;20456;-72
2022/11/20 10:08:42;;;;;;;2.70;2.50;;;21.30;79.20;;;;;;4995096;28;20492;-72
2022/11/20 10:11:16;;;;;;;3.03;2.73;;;21.30;79.20;;;;;;4998346;28;20440;-72
2022/11/20 10:13:55;;;;;;;3.13;2.83;;;21.30;79.20;;;;;;4999083;28;20514;-71
2022/11/20 10:16:33;;;;;;;3.57;2.93;;;21.30;79.20;;;;;;4990490;28;20490;-71
2022/11/20 10:19:14;;;;;;;2.70;2.50;;;21.30;79.20;;;;;;4980775;28;20456;-72
2022/11/20 10:21:56;;;;;;;3.07;2.87;;;21.30;79.10;;;;;;4999519;28;20974;-71
2022/11/20 10:24:43;;;;;;;2.90;2.70;;;21.30;79.10;;;;;;4997697;28;20459;-71
2022/11/20 10:27:28;;;;;;;2.83;2.63;;;21.30;79.00;;;;;;4991479;28;20491;-71
2022/11/20 10:30:01;;;;;;;3.00;2.37;;;21.20;79.00;;;;;;4986029;28;20463;-71
2022/11/20 10:32:34;;;;;;;2.83;2.63;;;21.20;78.90;;;;;;4985311;28;20459;-71
2022/11/20 10:35:08;;;;;;;2.80;2.60;;;21.20;79.00;;;;;;4989160;28;20455;-73
2022/11/20 10:37:38;;;;;;;3.03;2.80;;;21.20;79.00;;;;;;4985840;28;20765;-70
2022/11/20 10:40:20;;;;;;;2.90;2.70;;;21.20;79.10;;;;;;5001149;28;20951;-74
2022/11/20 10:42:53;;;;;;;3.13;2.80;;;21.10;79.10;;;;;;4976218;28;21103;-72
2022/11/20 10:45:31;;;;;;;2.83;2.60;;;21.10;79.10;;;;;;4987148;28;20571;-72
2022/11/20 10:48:11;;;;;;;2.60;2.40;;;21.10;79.20;;;;;;4986488;28;20997;-73
2022/11/20 10:50:47;;;;;;;2.70;2.50;;;21.10;79.20;;;;;;4988174;28;20444;-72
2022/11/20 10:53:22;;;;;;;2.40;2.20;;;21.10;79.20;;;;;;4998048;28;20935;-73
2022/11/20 10:55:55;;;;;;;2.93;2.63;;;21.10;79.20;;;;;;5007738;28;20451;-72
2022/11/20 10:58:37;;;;;;;2.80;2.60;;;21.20;79.20;;;;;;4992992;28;20977;-71
2022/11/20 11:01:05;;;;;;;3.27;2.97;;;21.20;79.20;;;;;;4991742;28;20497;-73
2022/11/20 11:03:33;;;;;;;2.70;2.50;;;21.20;79.20;;;;;;4992269;28;21026;-72
2022/11/20 11:06:08;;;;;;;2.83;2.63;;;21.20;79.20;;;;;;4989746;28;20460;-74
2022/11/20 11:08:39;;;;;;;3.57;3.20;;;21.20;79.10;;;;;;4995091;28;20486;-73
2022/11/20 11:11:21;;;;;;;2.80;2.60;;;21.20;79.00;;;;;;4997570;28;20464;-73
2022/11/20 11:13:47;;;;;;;2.63;2.43;;;21.30;79.00;;;;;;4992737;28;21001;-76
2022/11/20 11:16:22;;;;;;;7.00;2.97;;;21.30;79.30;;;;;;4985547;28;20837;-75
2022/11/20 11:18:49;;;;;;;19.83;3.13;;;21.30;81.30;;;;;;4990036;28;20537;-72
2022/11/20 11:21:23;;;;;;;6.53;3.37;;;21.40;81.10;;;;;;4991484;28;20475;-74
2022/11/20 11:23:59;;;;;;;11.23;3.00;;;21.40;81.00;;;;;;5014659;28;20995;-72
2022/11/20 11:26:27;;;;;;;7.13;2.60;;;21.40;81.00;;;;;;5008340;28;20459;-73
2022/11/20 11:28:55;;;;;;;5.93;3.17;;;21.30;81.30;;;;;;4995096;28;20519;-72
2022/11/20 11:31:26;;;;;;;2.53;2.33;;;21.20;82.00;;;;;;4990156;28;20456;-73
2022/11/20 11:33:53;;;;;;;2.97;2.73;;;21.20;82.50;;;;;;4990865;28;20463;-73
2022/11/20 11:36:24;;;;;;;3.90;2.30;;;21.10;82.80;;;;;;4990474;28;20456;-75
2022/11/20 11:38:54;;;;;;;6.63;2.97;;;21.10;83.10;;;;;;4992699;28;20452;-74
2022/11/20 11:41:24;;;;;;;6.50;3.33;;;21.10;83.20;;;;;;5001791;28;20478;-75
2022/11/20 11:46:40;;;;;;;3.78;3.47;;;21.10;83.50;;;;;;4993957;28;20290;-74
2022/11/20 11:49:17;;;;;;;2.33;2.13;;;21.10;83.90;;;;;;4985137;28;20225;-74
2022/11/20 11:52:01;;;;;;;3.28;3.00;;;21.00;84.00;;;;;;5000735;28;20200;-76
2022/11/20 11:54:35;;;;;;;2.70;2.50;;;21.00;84.30;;;;;;4991962;28;20197;-80
2022/11/20 11:57:05;;;;;;;4.82;3.10;;;21.00;84.20;;;;;;4993077;28;20197;-81
2022/11/20 11:59:47;;;;;;;3.38;3.05;;;21.00;84.20;;;;;;4987725;28;20201;-79
2022/11/20 12:02:26;;;;;;;3.90;2.90;;;21.00;84.30;;;;;;4985842;28;20690;-81
2022/11/20 12:04:58;;;;;;;5.47;3.28;;;21.00;84.60;;;;;;4985243;28;20248;-81
2022/11/20 12:07:39;;;;;;;2.65;2.45;;;21.00;84.60;;;;;;4985731;28;20668;-81
2022/11/20 12:10:13;;;;;;;3.10;2.80;;;21.00;84.70;;;;;;4991232;28;20302;-81
2022/11/20 12:12:45;;;;;;;6.10;2.70;;;21.00;84.80;;;;;;4992870;28;20201;-81
2022/11/20 12:15:16;;;;;;;3.13;2.92;;;21.00;84.80;;;;;;4989521;28;20495;-79
2022/11/20 12:17:43;;;;;;;3.58;3.08;;;21.00;84.80;;;;;;4986894;28;20212;-79
2022/11/20 12:20:14;;;;;;;2.93;2.63;;;21.00;84.80;;;;;;4988350;28;20203;-79
2022/11/20 12:22:52;;;;;;;3.10;2.78;;;21.00;84.80;;;;;;4997921;28;20468;-79
2022/11/20 12:25:24;;;;;;;2.97;2.78;;;21.00;84.90;;;;;;4991846;28;20207;-79
2022/11/20 12:28:07;;;;;;;2.80;2.60;;;21.00;85.10;;;;;;4996080;28;20228;-79
2022/11/20 12:30:36;;;;;;;2.67;2.47;;;21.00;85.10;;;;;;4995367;28;20204;-79
2022/11/20 12:33:27;;;;;;;3.63;3.25;;;21.00;85.00;;;;;;5003959;28;20588;-79
2022/11/20 12:36:16;;;;;;;4.00;2.65;;;21.00;85.10;;;;;;4994852;28;20192;-79
2022/11/20 12:39:08;;;;;;;3.72;2.50;;;21.00;85.20;;;;;;4988684;28;20201;-79
2022/11/20 12:45:11;;;;;;;2.58;2.38;;;21.00;85.10;;;;;;5000997;28;20228;-79
2022/11/20 12:48:11;;;;;;;2.80;2.50;;;21.00;85.00;;;;;;4990812;28;20205;-79
2022/11/20 12:50:48;;;;;;;2.92;2.60;;;21.00;85.00;;;;;;4991820;28;20442;-79
2022/11/20 12:53:28;;;;;;;3.30;3.00;;;21.00;85.60;;;;;;4986836;28;20193;-79
2022/11/20 12:56:06;;;;;;;2.63;2.42;;;21.00;84.80;;;;;;4994889;28;20283;-77
2022/11/20 12:58:41;;;;;;;3.57;3.27;;;21.10;84.60;;;;;;4993059;28;20201;-79
2022/11/20 13:01:39;;;;;;;3.07;2.80;;;21.00;84.20;;;;;;4992386;28;20466;-78
2022/11/20 13:04:13;;;;;;;4.13;3.03;;;21.10;84.50;;;;;;4988439;28;20535;-79
2022/11/20 13:06:41;;;;;;;3.17;2.88;;;21.10;84.60;;;;;;4992346;28;20471;-79
2022/11/20 13:09:13;;;;;;;2.80;2.60;;;21.10;84.70;;;;;;4993558;28;20572;-79
2022/11/20 13:11:47;;;;;;;3.80;2.83;;;21.00;84.60;;;;;;4988547;28;20461;-78
2022/11/20 13:14:27;;;;;;;3.55;2.50;;;21.10;84.70;;;;;;4984944;28;20200;-78